sensor_id;sensor_type;location;lat;lon;timestamp;temperature;humidity
22491;DHT22;11412;50.802;4.350;2023-01-24T00:02:04;3.90;99.90
22491;DHT22;11412;50.802;4.350;2023-01-24T00:04:30;3.70;99.90
22491;DHT22;11412;50.802;4.350;2023-01-24T00:06:55;3.60;99.90
22491;DHT22;11412;50.802;4.350;2023-01-24T00:09:21;3.90;99.90
22491;DHT22;11412;50.802;4.350;2023-01-24T00:11:47;3.80;99.90
22491;DHT22;11412;50.802;4.350;2023-01-24T00:14:12;3.90;99.90
22491;DHT22;11412;50.802;4.350;2023-01-24T00:16:38;3.80;99.90
22491;DHT22;11412;50.802;4.350;2023-01-24T00:19:04;3.90;99.90
22491;DHT22;11412;50.802;4.350;2023-01-24T00:21:29;3.80;99.90
22491;DHT22;11412;50.802;4.350;2023-01-24T00:23:55;4.00;99.90
22491;DHT22;11412;50.802;4.350;2023-01-24T00:26:22;3.80;99.90
22491;DHT22;11412;50.802;4.350;2023-01-24T00:28:48;3.70;99.90
22491;DHT22;11412;50.802;4.350;2023-01-24T00:31:15;3.70;99.90
22491;DHT22;11412;50.802;4.350;2023-01-24T00:33:41;3.90;99.90
22491;DHT22;11412;50.802;4.350;2023-01-24T00:36:07;3.90;99.90
22491;DHT22;11412;50.802;4.350;2023-01-24T00:38:33;3.90;99.90
22491;DHT22;11412;50.802;4.350;2023-01-24T00:40:59;3.90;99.90
22491;DHT22;11412;50.802;4.350;2023-01-24T00:43:25;4.00;99.90
22491;DHT22;11412;50.802;4.350;2023-01-24T00:45:54;4.00;99.90
22491;DHT22;11412;50.802;4.350;2023-01-24T00:48:20;4.00;99.90
22491;DHT22;11412;50.802;4.350;2023-01-24T00:50:46;4.00;99.90
22491;DHT22;11412;50.802;4.350;2023-01-24T00:53:11;4.00;99.90
22491;DHT22;11412;50.802;4.350;2023-01-24T00:55:44;3.90;99.90
22491;DHT22;11412;50.802;4.350;2023-01-24T00:58:10;3.90;99.90
22491;DHT22;11412;50.802;4.350;2023-01-24T01:00:37;3.90;99.90
22491;DHT22;11412;50.802;4.350;2023-01-24T01:03:05;4.00;99.90
22491;DHT22;11412;50.802;4.350;2023-01-24T01:05:32;4.00;99.90
22491;DHT22;11412;50.802;4.350;2023-01-24T01:07:57;3.90;99.90
22491;DHT22;11412;50.802;4.350;2023-01-24T01:10:23;3.90;99.90
22491;DHT22;11412;50.802;4.350;2023-01-24T01:12:49;4.00;99.90
22491;DHT22;11412;50.802;4.350;2023-01-24T01:15:14;4.00;99.90
22491;DHT22;11412;50.802;4.350;2023-01-24T01:17:40;3.90;99.90
22491;DHT22;11412;50.802;4.350;2023-01-24T01:20:06;4.00;99.90
22491;DHT22;11412;50.802;4.350;2023-01-24T01:22:32;3.90;99.90
22491;DHT22;11412;50.802;4.350;2023-01-24T01:24:58;4.00;99.90
22491;DHT22;11412;50.802;4.350;2023-01-24T01:27:24;3.90;99.90
22491;DHT22;11412;50.802;4.350;2023-01-24T01:29:49;4.00;99.90
22491;DHT22;11412;50.802;4.350;2023-01-24T01:32:15;4.00;99.90
22491;DHT22;11412;50.802;4.350;2023-01-24T01:34:41;4.10;99.90
22491;DHT22;11412;50.802;4.350;2023-01-24T01:37:06;3.90;99.90
22491;DHT22;11412;50.802;4.350;2023-01-24T01:39:32;4.00;99.90
22491;DHT22;11412;50.802;4.350;2023-01-24T01:41:58;3.90;99.90
22491;DHT22;11412;50.802;4.350;2023-01-24T01:44:27;4.00;99.90
22491;DHT22;11412;50.802;4.350;2023-01-24T01:47:21;3.90;99.90
22491;DHT22;11412;50.802;4.350;2023-01-24T01:49:54;4.10;99.90
22491;DHT22;11412;50.802;4.350;2023-01-24T01:52:24;4.00;99.90
22491;DHT22;11412;50.802;4.350;2023-01-24T01:54:54;3.90;99.90
22491;DHT22;11412;50.802;4.350;2023-01-24T01:57:24;3.90;99.90
22491;DHT22;11412;50.802;4.350;2023-01-24T01:59:55;3.90;99.90
22491;DHT22;11412;50.802;4.350;2023-01-24T02:02:22;3.90;99.90
22491;DHT22;11412;50.802;4.350;2023-01-24T02:05:03;3.90;99.90
22491;DHT22;11412;50.802;4.350;2023-01-24T02:10:08;4.00;99.90
22491;DHT22;11412;50.802;4.350;2023-01-24T02:12:39;4.00;99.90
22491;DHT22;11412;50.802;4.350;2023-01-24T02:15:09;4.00;99.90
22491;DHT22;11412;50.802;4.350;2023-01-24T02:17:54;3.90;99.90
22491;DHT22;11412;50.802;4.350;2023-01-24T02:20:40;3.80;99.90
22491;DHT22;11412;50.802;4.350;2023-01-24T02:23:31;3.70;99.90
22491;DHT22;11412;50.802;4.350;2023-01-24T02:26:11;3.70;99.90
22491;DHT22;11412;50.802;4.350;2023-01-24T02:28:39;3.70;99.90
22491;DHT22;11412;50.802;4.350;2023-01-24T02:31:06;3.70;99.90
22491;DHT22;11412;50.802;4.350;2023-01-24T02:33:32;3.90;99.90
22491;DHT22;11412;50.802;4.350;2023-01-24T02:38:49;3.70;99.90
22491;DHT22;11412;50.802;4.350;2023-01-24T02:41:18;3.80;99.90
22491;DHT22;11412;50.802;4.350;2023-01-24T02:43:47;3.80;99.90
22491;DHT22;11412;50.802;4.350;2023-01-24T02:46:15;4.10;99.90
22491;DHT22;11412;50.802;4.350;2023-01-24T02:48:40;4.00;99.90
22491;DHT22;11412;50.802;4.350;2023-01-24T02:51:06;3.80;99.90
22491;DHT22;11412;50.802;4.350;2023-01-24T02:53:50;3.90;99.90
22491;DHT22;11412;50.802;4.350;2023-01-24T02:56:16;3.80;99.90
22491;DHT22;11412;50.802;4.350;2023-01-24T02:59:00;3.80;99.90
22491;DHT22;11412;50.802;4.350;2023-01-24T03:01:26;3.70;99.90
22491;DHT22;11412;50.802;4.350;2023-01-24T03:03:52;3.90;99.90
22491;DHT22;11412;50.802;4.350;2023-01-24T03:06:18;3.60;99.90
22491;DHT22;11412;50.802;4.350;2023-01-24T03:08:44;3.70;99.90
22491;DHT22;11412;50.802;4.350;2023-01-24T03:11:11;3.60;99.90
22491;DHT22;11412;50.802;4.350;2023-01-24T03:13:37;3.70;99.90
22491;DHT22;11412;50.802;4.350;2023-01-24T03:16:21;3.90;99.90
22491;DHT22;11412;50.802;4.350;2023-01-24T03:19:06;3.80;99.90
22491;DHT22;11412;50.802;4.350;2023-01-24T03:21:50;3.80;99.90
22491;DHT22;11412;50.802;4.350;2023-01-24T03:24:34;3.80;99.90
22491;DHT22;11412;50.802;4.350;2023-01-24T03:27:19;3.70;99.90
22491;DHT22;11412;50.802;4.350;2023-01-24T03:30:11;3.70;99.90
22491;DHT22;11412;50.802;4.350;2023-01-24T03:33:01;3.60;99.90
22491;DHT22;11412;50.802;4.350;2023-01-24T03:35:50;3.70;99.90
22491;DHT22;11412;50.802;4.350;2023-01-24T03:38:20;3.80;99.90
22491;DHT22;11412;50.802;4.350;2023-01-24T03:41:04;3.80;99.90
22491;DHT22;11412;50.802;4.350;2023-01-24T03:43:30;3.90;99.90
22491;DHT22;11412;50.802;4.350;2023-01-24T03:45:57;3.70;99.90
22491;DHT22;11412;50.802;4.350;2023-01-24T03:48:23;3.70;99.90
22491;DHT22;11412;50.802;4.350;2023-01-24T03:50:52;3.70;99.90
22491;DHT22;11412;50.802;4.350;2023-01-24T03:53:37;3.80;99.90
22491;DHT22;11412;50.802;4.350;2023-01-24T03:56:03;3.70;99.90
22491;DHT22;11412;50.802;4.350;2023-01-24T03:58:30;3.80;99.90
22491;DHT22;11412;50.802;4.350;2023-01-24T04:00:56;3.90;99.90
22491;DHT22;11412;50.802;4.350;2023-01-24T04:03:22;3.90;99.90
22491;DHT22;11412;50.802;4.350;2023-01-24T04:05:48;3.70;99.90
22491;DHT22;11412;50.802;4.350;2023-01-24T04:08:14;3.70;99.90
22491;DHT22;11412;50.802;4.350;2023-01-24T04:10:39;3.70;99.90
22491;DHT22;11412;50.802;4.350;2023-01-24T04:13:05;3.60;99.90
22491;DHT22;11412;50.802;4.350;2023-01-24T04:15:32;3.60;99.90
22491;DHT22;11412;50.802;4.350;2023-01-24T04:18:00;3.60;99.90
22491;DHT22;11412;50.802;4.350;2023-01-24T04:20:28;3.70;99.90
22491;DHT22;11412;50.802;4.350;2023-01-24T04:22:54;3.80;99.90
22491;DHT22;11412;50.802;4.350;2023-01-24T04:25:21;3.80;99.90
22491;DHT22;11412;50.802;4.350;2023-01-24T04:27:47;3.90;99.90
22491;DHT22;11412;50.802;4.350;2023-01-24T04:30:14;3.90;99.90
22491;DHT22;11412;50.802;4.350;2023-01-24T04:32:41;3.90;99.90
22491;DHT22;11412;50.802;4.350;2023-01-24T04:35:07;3.80;99.90
22491;DHT22;11412;50.802;4.350;2023-01-24T04:37:33;3.90;99.90
22491;DHT22;11412;50.802;4.350;2023-01-24T04:39:59;3.80;99.90
22491;DHT22;11412;50.802;4.350;2023-01-24T04:42:27;3.80;99.90
22491;DHT22;11412;50.802;4.350;2023-01-24T04:44:53;3.80;99.90
22491;DHT22;11412;50.802;4.350;2023-01-24T04:47:18;3.90;99.90
22491;DHT22;11412;50.802;4.350;2023-01-24T04:49:44;4.10;99.90
22491;DHT22;11412;50.802;4.350;2023-01-24T04:52:13;4.10;99.90
22491;DHT22;11412;50.802;4.350;2023-01-24T04:54:41;3.90;99.90
22491;DHT22;11412;50.802;4.350;2023-01-24T04:57:09;3.90;99.90
22491;DHT22;11412;50.802;4.350;2023-01-24T04:59:36;3.70;99.90
22491;DHT22;11412;50.802;4.350;2023-01-24T05:02:01;3.60;99.90
22491;DHT22;11412;50.802;4.350;2023-01-24T05:04:27;3.50;99.90
22491;DHT22;11412;50.802;4.350;2023-01-24T05:06:53;3.50;99.90
22491;DHT22;11412;50.802;4.350;2023-01-24T05:09:19;3.60;99.90
22491;DHT22;11412;50.802;4.350;2023-01-24T05:11:44;3.60;99.90
22491;DHT22;11412;50.802;4.350;2023-01-24T05:14:10;3.70;99.90
22491;DHT22;11412;50.802;4.350;2023-01-24T05:16:39;3.60;99.90
22491;DHT22;11412;50.802;4.350;2023-01-24T05:19:05;3.70;99.90
22491;DHT22;11412;50.802;4.350;2023-01-24T05:21:31;3.80;99.90
22491;DHT22;11412;50.802;4.350;2023-01-24T05:23:57;3.90;99.90
22491;DHT22;11412;50.802;4.350;2023-01-24T05:26:25;3.80;99.90
22491;DHT22;11412;50.802;4.350;2023-01-24T05:28:51;3.80;99.90
22491;DHT22;11412;50.802;4.350;2023-01-24T05:31:17;3.70;99.90
22491;DHT22;11412;50.802;4.350;2023-01-24T05:33:43;3.60;99.90
22491;DHT22;11412;50.802;4.350;2023-01-24T05:36:17;3.60;99.90
22491;DHT22;11412;50.802;4.350;2023-01-24T05:38:44;3.60;99.90
22491;DHT22;11412;50.802;4.350;2023-01-24T05:41:11;3.40;99.90
22491;DHT22;11412;50.802;4.350;2023-01-24T05:43:38;3.60;99.90
22491;DHT22;11412;50.802;4.350;2023-01-24T05:46:09;3.70;99.90
22491;DHT22;11412;50.802;4.350;2023-01-24T05:48:36;3.70;99.90
22491;DHT22;11412;50.802;4.350;2023-01-24T05:51:07;3.80;99.90
22491;DHT22;11412;50.802;4.350;2023-01-24T05:53:37;3.90;99.90
22491;DHT22;11412;50.802;4.350;2023-01-24T05:56:05;3.80;99.90
22491;DHT22;11412;50.802;4.350;2023-01-24T05:58:36;3.80;99.90
22491;DHT22;11412;50.802;4.350;2023-01-24T06:01:12;3.90;99.90
22491;DHT22;11412;50.802;4.350;2023-01-24T06:03:40;3.80;99.90
22491;DHT22;11412;50.802;4.350;2023-01-24T06:06:11;3.90;99.90
22491;DHT22;11412;50.802;4.350;2023-01-24T06:08:37;3.70;99.90
22491;DHT22;11412;50.802;4.350;2023-01-24T06:11:15;3.50;99.90
22491;DHT22;11412;50.802;4.350;2023-01-24T06:13:41;3.50;99.90
22491;DHT22;11412;50.802;4.350;2023-01-24T06:16:10;3.50;99.90
22491;DHT22;11412;50.802;4.350;2023-01-24T06:18:37;3.50;99.90
22491;DHT22;11412;50.802;4.350;2023-01-24T06:23:51;3.60;99.90
22491;DHT22;11412;50.802;4.350;2023-01-24T06:26:17;3.50;99.90
22491;DHT22;11412;50.802;4.350;2023-01-24T06:28:43;3.50;99.90
22491;DHT22;11412;50.802;4.350;2023-01-24T06:39:28;3.60;99.90
22491;DHT22;11412;50.802;4.350;2023-01-24T06:41:54;3.70;99.90
22491;DHT22;11412;50.802;4.350;2023-01-24T06:44:20;3.80;99.90
22491;DHT22;11412;50.802;4.350;2023-01-24T06:46:45;3.60;99.90
22491;DHT22;11412;50.802;4.350;2023-01-24T06:49:11;3.40;99.90
22491;DHT22;11412;50.802;4.350;2023-01-24T06:51:37;3.40;99.90
22491;DHT22;11412;50.802;4.350;2023-01-24T06:54:03;3.60;99.90
22491;DHT22;11412;50.802;4.350;2023-01-24T06:56:29;3.60;99.90
22491;DHT22;11412;50.802;4.350;2023-01-24T06:58:54;3.60;99.90
22491;DHT22;11412;50.802;4.350;2023-01-24T07:01:20;3.50;99.90
22491;DHT22;11412;50.802;4.350;2023-01-24T07:03:46;3.40;99.90
22491;DHT22;11412;50.802;4.350;2023-01-24T07:06:11;3.40;99.90
22491;DHT22;11412;50.802;4.350;2023-01-24T07:08:37;3.40;99.90
22491;DHT22;11412;50.802;4.350;2023-01-24T07:11:03;3.50;99.90
22491;DHT22;11412;50.802;4.350;2023-01-24T07:13:28;3.60;99.90
22491;DHT22;11412;50.802;4.350;2023-01-24T07:15:54;3.50;99.90
22491;DHT22;11412;50.802;4.350;2023-01-24T07:18:20;3.60;99.90
22491;DHT22;11412;50.802;4.350;2023-01-24T07:20:46;3.70;99.90
22491;DHT22;11412;50.802;4.350;2023-01-24T07:23:26;3.50;99.90
22491;DHT22;11412;50.802;4.350;2023-01-24T07:25:56;3.50;99.90
22491;DHT22;11412;50.802;4.350;2023-01-24T07:28:22;3.50;99.90
22491;DHT22;11412;50.802;4.350;2023-01-24T07:30:48;3.60;99.90
22491;DHT22;11412;50.802;4.350;2023-01-24T07:33:15;3.60;99.90
22491;DHT22;11412;50.802;4.350;2023-01-24T07:35:41;3.40;99.90
22491;DHT22;11412;50.802;4.350;2023-01-24T07:38:08;3.20;99.90
22491;DHT22;11412;50.802;4.350;2023-01-24T07:40:33;3.40;99.90
22491;DHT22;11412;50.802;4.350;2023-01-24T07:43:00;3.50;99.90
22491;DHT22;11412;50.802;4.350;2023-01-24T07:45:27;3.70;99.90
22491;DHT22;11412;50.802;4.350;2023-01-24T07:47:56;3.50;99.90
22491;DHT22;11412;50.802;4.350;2023-01-24T07:50:23;3.50;99.90
22491;DHT22;11412;50.802;4.350;2023-01-24T07:52:55;3.40;99.90
22491;DHT22;11412;50.802;4.350;2023-01-24T07:55:22;3.50;99.90
22491;DHT22;11412;50.802;4.350;2023-01-24T07:57:48;3.50;99.90
22491;DHT22;11412;50.802;4.350;2023-01-24T08:00:15;3.40;99.90
22491;DHT22;11412;50.802;4.350;2023-01-24T08:02:41;3.20;99.90
22491;DHT22;11412;50.802;4.350;2023-01-24T08:05:07;3.30;99.90
22491;DHT22;11412;50.802;4.350;2023-01-24T08:07:33;3.30;99.90
22491;DHT22;11412;50.802;4.350;2023-01-24T08:09:58;3.30;99.90
22491;DHT22;11412;50.802;4.350;2023-01-24T08:12:24;3.50;99.90
22491;DHT22;11412;50.802;4.350;2023-01-24T08:14:50;3.50;99.90
22491;DHT22;11412;50.802;4.350;2023-01-24T08:17:16;3.50;99.90
22491;DHT22;11412;50.802;4.350;2023-01-24T08:19:41;3.40;99.90
22491;DHT22;11412;50.802;4.350;2023-01-24T08:22:07;3.60;99.90
22491;DHT22;11412;50.802;4.350;2023-01-24T08:24:33;3.60;99.90
22491;DHT22;11412;50.802;4.350;2023-01-24T08:27:00;3.60;99.90
22491;DHT22;11412;50.802;4.350;2023-01-24T08:29:26;3.60;99.90
22491;DHT22;11412;50.802;4.350;2023-01-24T08:31:52;3.60;99.90
22491;DHT22;11412;50.802;4.350;2023-01-24T08:34:17;3.60;99.90
22491;DHT22;11412;50.802;4.350;2023-01-24T08:36:43;3.70;99.90
22491;DHT22;11412;50.802;4.350;2023-01-24T08:39:09;3.70;99.90
22491;DHT22;11412;50.802;4.350;2023-01-24T08:41:35;3.60;99.90
22491;DHT22;11412;50.802;4.350;2023-01-24T08:44:02;3.60;99.90
22491;DHT22;11412;50.802;4.350;2023-01-24T08:46:29;3.70;99.90
22491;DHT22;11412;50.802;4.350;2023-01-24T08:48:54;3.80;99.90
22491;DHT22;11412;50.802;4.350;2023-01-24T08:51:20;3.80;99.90
22491;DHT22;11412;50.802;4.350;2023-01-24T08:53:46;3.70;99.90
22491;DHT22;11412;50.802;4.350;2023-01-24T08:56:12;3.60;99.90
22491;DHT22;11412;50.802;4.350;2023-01-24T08:58:38;3.60;99.90
22491;DHT22;11412;50.802;4.350;2023-01-24T09:01:07;3.50;99.90
22491;DHT22;11412;50.802;4.350;2023-01-24T09:03:33;3.60;99.90
22491;DHT22;11412;50.802;4.350;2023-01-24T09:05:59;3.70;99.90
22491;DHT22;11412;50.802;4.350;2023-01-24T09:08:25;3.70;99.90
22491;DHT22;11412;50.802;4.350;2023-01-24T09:10:51;3.80;99.90
22491;DHT22;11412;50.802;4.350;2023-01-24T09:13:17;3.70;99.90
22491;DHT22;11412;50.802;4.350;2023-01-24T09:15:43;3.60;99.90
22491;DHT22;11412;50.802;4.350;2023-01-24T09:18:09;3.70;99.90
22491;DHT22;11412;50.802;4.350;2023-01-24T09:20:34;3.70;99.90
22491;DHT22;11412;50.802;4.350;2023-01-24T09:23:07;3.80;99.90
22491;DHT22;11412;50.802;4.350;2023-01-24T09:25:34;3.60;99.90
22491;DHT22;11412;50.802;4.350;2023-01-24T09:27:59;3.80;99.90
22491;DHT22;11412;50.802;4.350;2023-01-24T09:30:25;3.50;99.90
22491;DHT22;11412;50.802;4.350;2023-01-24T09:32:50;3.40;99.90
22491;DHT22;11412;50.802;4.350;2023-01-24T09:35:16;3.40;99.90
22491;DHT22;11412;50.802;4.350;2023-01-24T09:37:42;3.60;99.90
22491;DHT22;11412;50.802;4.350;2023-01-24T09:40:19;3.80;99.90
22491;DHT22;11412;50.802;4.350;2023-01-24T09:42:55;3.70;99.90
22491;DHT22;11412;50.802;4.350;2023-01-24T09:45:35;3.60;99.90
22491;DHT22;11412;50.802;4.350;2023-01-24T09:48:06;3.80;99.90
22491;DHT22;11412;50.802;4.350;2023-01-24T09:50:43;3.70;99.90
22491;DHT22;11412;50.802;4.350;2023-01-24T09:53:15;3.50;99.90
22491;DHT22;11412;50.802;4.350;2023-01-24T09:55:43;3.40;99.90
22491;DHT22;11412;50.802;4.350;2023-01-24T10:00:54;3.30;99.90
22491;DHT22;11412;50.802;4.350;2023-01-24T10:03:22;3.30;99.90
22491;DHT22;11412;50.802;4.350;2023-01-24T10:05:51;3.40;99.90
22491;DHT22;11412;50.802;4.350;2023-01-24T10:14:31;3.50;99.90
22491;DHT22;11412;50.802;4.350;2023-01-24T10:26:42;3.60;99.90
22491;DHT22;11412;50.802;4.350;2023-01-24T10:28:45;3.50;99.90
22491;DHT22;11412;50.802;4.350;2023-01-24T10:31:14;3.60;99.90
22491;DHT22;11412;50.802;4.350;2023-01-24T10:33:53;3.40;99.90
22491;DHT22;11412;50.802;4.350;2023-01-24T10:36:32;3.50;99.90
22491;DHT22;11412;50.802;4.350;2023-01-24T10:39:01;3.70;99.90
22491;DHT22;11412;50.802;4.350;2023-01-24T10:41:30;3.80;99.90
22491;DHT22;11412;50.802;4.350;2023-01-24T10:44:03;3.80;99.90
22491;DHT22;11412;50.802;4.350;2023-01-24T10:49:24;3.60;99.90
22491;DHT22;11412;50.802;4.350;2023-01-24T10:52:21;3.80;99.90
22491;DHT22;11412;50.802;4.350;2023-01-24T10:54:50;3.90;99.90
22491;DHT22;11412;50.802;4.350;2023-01-24T11:02:40;4.20;99.90
22491;DHT22;11412;50.802;4.350;2023-01-24T11:05:12;3.90;99.90
22491;DHT22;11412;50.802;4.350;2023-01-24T11:07:47;4.10;99.90
22491;DHT22;11412;50.802;4.350;2023-01-24T11:12:49;4.00;99.90
22491;DHT22;11412;50.802;4.350;2023-01-24T11:15:20;3.90;99.90
22491;DHT22;11412;50.802;4.350;2023-01-24T11:17:53;4.00;99.90
22491;DHT22;11412;50.802;4.350;2023-01-24T11:20:31;4.00;99.90
22491;DHT22;11412;50.802;4.350;2023-01-24T11:23:18;3.90;99.90
22491;DHT22;11412;50.802;4.350;2023-01-24T11:28:35;4.10;99.90
22491;DHT22;11412;50.802;4.350;2023-01-24T11:31:17;4.00;99.90
22491;DHT22;11412;50.802;4.350;2023-01-24T11:39:29;3.70;99.90
22491;DHT22;11412;50.802;4.350;2023-01-24T11:42:07;3.70;99.90
22491;DHT22;11412;50.802;4.350;2023-01-24T11:47:17;3.90;99.90
22491;DHT22;11412;50.802;4.350;2023-01-24T11:50:03;3.90;99.90
22491;DHT22;11412;50.802;4.350;2023-01-24T11:52:56;3.90;99.90
22491;DHT22;11412;50.802;4.350;2023-01-24T11:59:00;4.00;99.90
22491;DHT22;11412;50.802;4.350;2023-01-24T12:01:49;4.10;99.90
22491;DHT22;11412;50.802;4.350;2023-01-24T12:07:50;4.20;99.90
22491;DHT22;11412;50.802;4.350;2023-01-24T12:13:46;4.30;99.90
22491;DHT22;11412;50.802;4.350;2023-01-24T12:21:15;3.70;99.90
22491;DHT22;11412;50.802;4.350;2023-01-24T12:24:10;3.80;99.90
22491;DHT22;11412;50.802;4.350;2023-01-24T12:26:49;3.90;99.90
22491;DHT22;11412;50.802;4.350;2023-01-24T12:29:33;4.10;99.90
22491;DHT22;11412;50.802;4.350;2023-01-24T12:32:15;4.00;99.90
22491;DHT22;11412;50.802;4.350;2023-01-24T12:37:35;3.90;99.90
22491;DHT22;11412;50.802;4.350;2023-01-24T12:40:15;4.10;99.90
22491;DHT22;11412;50.802;4.350;2023-01-24T12:45:34;4.00;99.90
22491;DHT22;11412;50.802;4.350;2023-01-24T12:53:37;4.00;99.90
22491;DHT22;11412;50.802;4.350;2023-01-24T12:56:31;4.00;99.90
22491;DHT22;11412;50.802;4.350;2023-01-24T12:58:58;3.90;99.90
22491;DHT22;11412;50.802;4.350;2023-01-24T13:07:09;4.00;99.90
22491;DHT22;11412;50.802;4.350;2023-01-24T13:09:59;3.80;99.90
22491;DHT22;11412;50.802;4.350;2023-01-24T13:12:29;3.80;99.90
22491;DHT22;11412;50.802;4.350;2023-01-24T13:15:17;4.10;99.90
22491;DHT22;11412;50.802;4.350;2023-01-24T13:17:51;4.10;99.90
22491;DHT22;11412;50.802;4.350;2023-01-24T13:29:15;4.00;99.90
22491;DHT22;11412;50.802;4.350;2023-01-24T13:31:58;3.80;99.90
22491;DHT22;11412;50.802;4.350;2023-01-24T13:34:31;3.70;99.90
22491;DHT22;11412;50.802;4.350;2023-01-24T13:36:59;3.60;99.90
22491;DHT22;11412;50.802;4.350;2023-01-24T13:39:34;3.70;99.90
22491;DHT22;11412;50.802;4.350;2023-01-24T13:42:21;3.80;99.90
22491;DHT22;11412;50.802;4.350;2023-01-24T13:44:47;3.70;99.90
22491;DHT22;11412;50.802;4.350;2023-01-24T13:54:57;3.70;99.90
22491;DHT22;11412;50.802;4.350;2023-01-24T14:00:15;3.90;99.90
22491;DHT22;11412;50.802;4.350;2023-01-24T14:02:44;4.00;99.90
22491;DHT22;11412;50.802;4.350;2023-01-24T14:08:01;4.00;99.90
22491;DHT22;11412;50.802;4.350;2023-01-24T14:10:38;4.00;99.90
22491;DHT22;11412;50.802;4.350;2023-01-24T14:13:10;4.10;99.90
22491;DHT22;11412;50.802;4.350;2023-01-24T14:15:51;4.20;99.90
22491;DHT22;11412;50.802;4.350;2023-01-24T14:18:54;4.00;99.90
22491;DHT22;11412;50.802;4.350;2023-01-24T14:21:36;3.90;99.90
22491;DHT22;11412;50.802;4.350;2023-01-24T14:24:21;3.80;99.90
22491;DHT22;11412;50.802;4.350;2023-01-24T14:26:57;3.90;99.90
22491;DHT22;11412;50.802;4.350;2023-01-24T14:29:36;3.80;99.90
22491;DHT22;11412;50.802;4.350;2023-01-24T14:32:04;3.80;99.90
22491;DHT22;11412;50.802;4.350;2023-01-24T14:34:38;3.90;99.90
22491;DHT22;11412;50.802;4.350;2023-01-24T14:37:12;3.70;99.90
22491;DHT22;11412;50.802;4.350;2023-01-24T14:39:38;3.70;99.90
22491;DHT22;11412;50.802;4.350;2023-01-24T14:42:06;3.80;99.90
22491;DHT22;11412;50.802;4.350;2023-01-24T14:44:34;3.60;99.90
22491;DHT22;11412;50.802;4.350;2023-01-24T14:47:12;3.70;99.90
22491;DHT22;11412;50.802;4.350;2023-01-24T14:49:46;3.60;99.90
22491;DHT22;11412;50.802;4.350;2023-01-24T14:54:50;3.70;99.90
22491;DHT22;11412;50.802;4.350;2023-01-24T14:57:25;3.70;99.90
22491;DHT22;11412;50.802;4.350;2023-01-24T15:02:35;3.50;99.90
22491;DHT22;11412;50.802;4.350;2023-01-24T15:05:02;3.60;99.90
22491;DHT22;11412;50.802;4.350;2023-01-24T15:07:44;3.70;99.90
22491;DHT22;11412;50.802;4.350;2023-01-24T15:10:14;3.40;99.90
22491;DHT22;11412;50.802;4.350;2023-01-24T15:12:40;3.50;99.90
22491;DHT22;11412;50.802;4.350;2023-01-24T15:15:15;3.80;99.90
22491;DHT22;11412;50.802;4.350;2023-01-24T15:17:45;3.50;99.90
22491;DHT22;11412;50.802;4.350;2023-01-24T15:20:20;3.40;99.90
22491;DHT22;11412;50.802;4.350;2023-01-24T15:22:55;3.40;99.90
22491;DHT22;11412;50.802;4.350;2023-01-24T15:25:33;3.50;99.90
22491;DHT22;11412;50.802;4.350;2023-01-24T15:28:32;3.50;99.90
22491;DHT22;11412;50.802;4.350;2023-01-24T15:30:59;3.50;99.90
22491;DHT22;11412;50.802;4.350;2023-01-24T15:33:42;3.60;99.90
22491;DHT22;11412;50.802;4.350;2023-01-24T15:36:26;3.70;99.90
22491;DHT22;11412;50.802;4.350;2023-01-24T15:38:54;3.70;99.90
22491;DHT22;11412;50.802;4.350;2023-01-24T15:41:25;3.70;99.90
22491;DHT22;11412;50.802;4.350;2023-01-24T15:44:12;3.80;99.90
22491;DHT22;11412;50.802;4.350;2023-01-24T15:46:43;3.70;99.90
22491;DHT22;11412;50.802;4.350;2023-01-24T15:49:58;3.60;99.90
22491;DHT22;11412;50.802;4.350;2023-01-24T15:52:24;3.50;99.90
22491;DHT22;11412;50.802;4.350;2023-01-24T15:54:57;3.30;99.90
22491;DHT22;11412;50.802;4.350;2023-01-24T15:57:34;3.30;99.90
22491;DHT22;11412;50.802;4.350;2023-01-24T16:02:38;3.30;99.90
22491;DHT22;11412;50.802;4.350;2023-01-24T16:05:15;3.40;99.90
22491;DHT22;11412;50.802;4.350;2023-01-24T16:07:41;3.40;99.90
22491;DHT22;11412;50.802;4.350;2023-01-24T16:10:12;3.40;99.90
22491;DHT22;11412;50.802;4.350;2023-01-24T16:12:38;3.50;99.90
22491;DHT22;11412;50.802;4.350;2023-01-24T16:15:04;3.60;99.90
22491;DHT22;11412;50.802;4.350;2023-01-24T16:17:30;3.40;99.90
22491;DHT22;11412;50.802;4.350;2023-01-24T16:19:56;3.30;99.90
22491;DHT22;11412;50.802;4.350;2023-01-24T16:22:21;3.40;99.90
22491;DHT22;11412;50.802;4.350;2023-01-24T16:24:48;3.40;99.90
22491;DHT22;11412;50.802;4.350;2023-01-24T16:27:14;3.50;99.90
22491;DHT22;11412;50.802;4.350;2023-01-24T16:29:41;3.60;99.90
22491;DHT22;11412;50.802;4.350;2023-01-24T16:32:18;3.60;99.90
22491;DHT22;11412;50.802;4.350;2023-01-24T16:34:44;3.60;99.90
22491;DHT22;11412;50.802;4.350;2023-01-24T16:37:10;3.80;99.90
22491;DHT22;11412;50.802;4.350;2023-01-24T16:39:36;3.60;99.90
22491;DHT22;11412;50.802;4.350;2023-01-24T16:42:02;3.60;99.90
22491;DHT22;11412;50.802;4.350;2023-01-24T16:44:28;3.70;99.90
22491;DHT22;11412;50.802;4.350;2023-01-24T16:46:53;3.60;99.90
22491;DHT22;11412;50.802;4.350;2023-01-24T16:49:19;3.70;99.90
22491;DHT22;11412;50.802;4.350;2023-01-24T16:51:45;3.70;99.90
22491;DHT22;11412;50.802;4.350;2023-01-24T16:54:12;3.40;99.90
22491;DHT22;11412;50.802;4.350;2023-01-24T16:56:38;3.40;99.90
22491;DHT22;11412;50.802;4.350;2023-01-24T16:59:04;3.30;99.90
22491;DHT22;11412;50.802;4.350;2023-01-24T17:01:29;3.20;99.90
22491;DHT22;11412;50.802;4.350;2023-01-24T17:03:55;3.40;99.90
22491;DHT22;11412;50.802;4.350;2023-01-24T17:06:21;3.40;99.90
22491;DHT22;11412;50.802;4.350;2023-01-24T17:08:50;3.40;99.90
22491;DHT22;11412;50.802;4.350;2023-01-24T17:11:16;3.70;99.90
22491;DHT22;11412;50.802;4.350;2023-01-24T17:13:48;3.50;99.90
22491;DHT22;11412;50.802;4.350;2023-01-24T17:16:14;3.40;99.90
22491;DHT22;11412;50.802;4.350;2023-01-24T17:18:39;3.30;99.90
22491;DHT22;11412;50.802;4.350;2023-01-24T17:21:08;3.30;99.90
22491;DHT22;11412;50.802;4.350;2023-01-24T17:23:35;3.40;99.90
22491;DHT22;11412;50.802;4.350;2023-01-24T17:26:04;3.40;99.90
22491;DHT22;11412;50.802;4.350;2023-01-24T17:28:30;3.30;99.90
22491;DHT22;11412;50.802;4.350;2023-01-24T17:30:56;3.20;99.90
22491;DHT22;11412;50.802;4.350;2023-01-24T17:33:21;3.30;99.90
22491;DHT22;11412;50.802;4.350;2023-01-24T17:35:47;3.40;99.90
22491;DHT22;11412;50.802;4.350;2023-01-24T17:38:13;3.40;99.90
22491;DHT22;11412;50.802;4.350;2023-01-24T17:40:38;3.30;99.90
22491;DHT22;11412;50.802;4.350;2023-01-24T17:43:04;3.40;99.90
22491;DHT22;11412;50.802;4.350;2023-01-24T17:45:30;3.50;99.90
22491;DHT22;11412;50.802;4.350;2023-01-24T17:47:56;3.20;99.90
22491;DHT22;11412;50.802;4.350;2023-01-24T17:50:21;3.20;99.90
22491;DHT22;11412;50.802;4.350;2023-01-24T17:52:48;3.20;99.90
22491;DHT22;11412;50.802;4.350;2023-01-24T17:55:14;3.10;99.90
22491;DHT22;11412;50.802;4.350;2023-01-24T17:57:41;3.20;99.90
22491;DHT22;11412;50.802;4.350;2023-01-24T18:00:08;3.20;99.90
22491;DHT22;11412;50.802;4.350;2023-01-24T18:02:34;3.20;99.90